createdAt,value
2022-10-21T00:02:21.220Z,19.00
2022-10-21T00:04:52.318Z,17.42
2022-10-21T00:07:23.071Z,16.90
2022-10-21T00:09:50.306Z,16.83
2022-10-21T00:12:17.681Z,17.23
2022-10-21T00:14:52.536Z,17.58
2022-10-21T00:17:25.591Z,17.73
2022-10-21T00:22:46.239Z,15.88
2022-10-21T00:25:37.379Z,16.23
2022-10-21T00:28:04.660Z,15.27
2022-10-21T00:30:32.750Z,16.50
2022-10-21T00:33:02.918Z,17.30
2022-10-21T00:38:04.844Z,16.88
2022-10-21T00:40:36.921Z,15.88
2022-10-21T00:43:05.163Z,16.83
2022-10-21T00:45:34.264Z,15.32
2022-10-21T00:48:17.777Z,17.52
2022-10-21T00:51:04.181Z,17.92
2022-10-21T00:53:32.654Z,19.13
2022-10-21T00:56:05.579Z,17.65
2022-10-21T00:58:34.878Z,20.63
2022-10-21T01:01:54.709Z,20.50
2022-10-21T01:04:10.038Z,22.10
2022-10-21T01:06:37.765Z,22.10
2022-10-21T01:09:05.862Z,19.55
2022-10-21T01:11:51.046Z,17.45
2022-10-21T01:14:38.786Z,16.23
2022-10-21T01:17:47.338Z,14.45
2022-10-21T01:20:34.172Z,15.23
2022-10-21T01:23:07.295Z,15.30
2022-10-21T01:26:13.055Z,15.73
2022-10-21T01:28:43.213Z,14.80
2022-10-21T01:31:48.631Z,17.02
2022-10-21T01:34:24.881Z,16.98
2022-10-21T01:36:52.917Z,15.52
2022-10-21T01:40:22.039Z,18.13
2022-10-21T01:43:02.651Z,16.58
2022-10-21T01:45:34.402Z,15.93
2022-10-21T01:48:24.771Z,15.63
2022-10-21T01:50:54.165Z,15.77
2022-10-21T01:53:33.574Z,15.32
2022-10-21T01:56:34.443Z,15.15
2022-10-21T02:01:38.980Z,15.43
2022-10-21T02:04:07.785Z,14.43
2022-10-21T02:06:39.375Z,14.38
2022-10-21T02:09:11.700Z,12.93
2022-10-21T02:11:45.098Z,18.67
2022-10-21T02:14:23.550Z,16.40
2022-10-21T02:16:53.392Z,16.33
2022-10-21T02:19:21.283Z,16.83
2022-10-21T02:21:53.587Z,15.38
2022-10-21T02:24:34.342Z,14.50
2022-10-21T02:29:32.684Z,13.60
2022-10-21T02:32:21.394Z,13.00
2022-10-21T02:40:45.949Z,14.55
2022-10-21T02:43:28.625Z,16.15
2022-10-21T02:45:59.922Z,15.18
2022-10-21T02:48:30.185Z,16.38
2022-10-21T02:50:57.796Z,15.40
2022-10-21T02:53:29.036Z,15.38
2022-10-21T02:55:57.917Z,17.17
2022-10-21T02:58:27.181Z,20.20
2022-10-21T03:01:00.398Z,18.55
2022-10-21T03:03:35.203Z,16.50
2022-10-21T03:06:03.176Z,15.05
2022-10-21T03:08:31.080Z,14.38
2022-10-21T03:11:00.210Z,13.63
2022-10-21T03:13:30.880Z,14.82
2022-10-21T03:18:32.085Z,13.35
2022-10-21T03:21:07.427Z,18.17
2022-10-21T03:23:39.912Z,18.70
2022-10-21T03:26:09.199Z,40.28
2022-10-21T03:28:39.637Z,25.05
2022-10-21T03:31:08.879Z,22.35
2022-10-21T03:33:39.131Z,21.90
2022-10-21T03:36:08.560Z,21.92
2022-10-21T03:38:40.679Z,20.00
2022-10-21T03:41:11.645Z,21.15
2022-10-21T03:43:38.927Z,24.88
2022-10-21T03:46:07.754Z,23.92
2022-10-21T03:48:37.450Z,25.65
2022-10-21T03:51:52.301Z,25.20
2022-10-21T03:54:22.530Z,21.17
2022-10-21T03:57:03.684Z,22.40
2022-10-21T03:59:35.132Z,20.90
2022-10-21T04:02:03.162Z,22.45
2022-10-21T04:04:30.621Z,25.55
2022-10-21T04:07:06.425Z,26.48
2022-10-21T04:09:40.840Z,29.63
2022-10-21T04:12:09.694Z,31.35
2022-10-21T04:14:41.708Z,32.03
2022-10-21T04:17:13.772Z,31.80
2022-10-21T04:19:43.176Z,25.85
2022-10-21T04:22:13.474Z,25.95
2022-10-21T04:24:40.800Z,29.25
2022-10-21T04:27:13.300Z,37.05
2022-10-21T04:29:43.762Z,30.60
2022-10-21T04:35:01.868Z,20.48
2022-10-21T04:37:31.876Z,18.25
2022-10-21T04:40:02.854Z,18.73
2022-10-21T04:42:35.048Z,17.33
2022-10-21T04:45:03.867Z,18.27
2022-10-21T04:47:35.617Z,17.90
2022-10-21T04:50:07.523Z,21.25
2022-10-21T04:52:37.299Z,20.88
2022-10-21T04:55:07.608Z,24.15
2022-10-21T04:57:50.159Z,21.67
2022-10-21T05:00:17.562Z,19.92
2022-10-21T05:02:48.027Z,18.10
2022-10-21T05:05:15.511Z,17.25
2022-10-21T05:07:44.311Z,19.73
2022-10-21T05:10:11.673Z,24.23
2022-10-21T05:12:41.316Z,22.10
2022-10-21T05:15:08.865Z,24.52
2022-10-21T05:17:37.207Z,23.33
2022-10-21T05:20:10.288Z,27.48
2022-10-21T05:22:45.267Z,28.58
2022-10-21T05:25:15.017Z,26.85
2022-10-21T05:27:48.067Z,22.27
2022-10-21T05:30:15.419Z,23.83
2022-10-21T05:32:44.659Z,23.02
2022-10-21T05:35:18.658Z,19.33
2022-10-21T05:37:46.076Z,20.52
2022-10-21T05:40:19.354Z,19.75
2022-10-21T05:42:51.111Z,18.63
2022-10-21T05:45:18.721Z,19.50
2022-10-21T05:47:47.992Z,17.17
2022-10-21T05:50:17.924Z,17.52
2022-10-21T05:52:48.032Z,16.40
2022-10-21T05:55:15.452Z,20.55
2022-10-21T05:57:42.738Z,22.02
2022-10-21T06:00:10.908Z,18.55
2022-10-21T06:02:42.169Z,16.67
2022-10-21T06:05:12.927Z,16.25
2022-10-21T06:10:24.264Z,19.65
2022-10-21T06:12:52.828Z,17.70
2022-10-21T06:15:20.172Z,18.50
2022-10-21T06:17:49.617Z,19.02
2022-10-21T06:20:19.418Z,19.90
2022-10-21T06:28:46.935Z,18.63
2022-10-21T06:31:27.913Z,19.10
2022-10-21T06:33:55.235Z,19.30
2022-10-21T06:36:23.772Z,19.42
2022-10-21T06:38:51.928Z,19.25
2022-10-21T06:41:27.016Z,26.33
2022-10-21T06:43:54.387Z,23.55
2022-10-21T06:46:25.203Z,20.83
2022-10-21T06:48:56.419Z,19.92
2022-10-21T06:51:48.386Z,17.73
2022-10-21T06:54:15.772Z,17.30
2022-10-21T06:56:43.824Z,15.73
2022-10-21T06:59:16.736Z,17.75
2022-10-21T07:01:59.701Z,17.90
2022-10-21T07:04:38.447Z,18.50
2022-10-21T07:07:25.572Z,17.27
2022-10-21T07:10:10.115Z,16.58
2022-10-21T07:12:53.821Z,16.88
2022-10-21T07:15:21.257Z,17.13
2022-10-21T07:17:52.805Z,17.45
2022-10-21T07:20:25.255Z,17.95
2022-10-21T07:22:52.783Z,17.42
2022-10-21T07:25:20.588Z,15.48
2022-10-21T07:27:50.920Z,12.95
2022-10-21T07:30:18.363Z,12.73
2022-10-21T07:32:50.575Z,12.68
2022-10-21T07:35:29.374Z,13.10
2022-10-21T07:38:05.328Z,12.43
2022-10-21T07:40:57.403Z,12.40
2022-10-21T07:43:28.199Z,12.25
2022-10-21T07:45:56.923Z,12.20
2022-10-21T07:48:28.384Z,12.02
2022-10-21T07:51:05.035Z,11.57
2022-10-21T07:53:45.025Z,11.77
2022-10-21T07:56:32.369Z,11.10
2022-10-21T07:59:17.446Z,12.07
2022-10-21T08:02:05.855Z,11.15
2022-10-21T08:04:42.651Z,11.57
2022-10-21T08:07:13.110Z,10.93
2022-10-21T08:09:41.104Z,11.52
2022-10-21T08:12:10.428Z,12.25
2022-10-21T08:14:40.614Z,11.77
2022-10-21T08:17:07.704Z,11.85
2022-10-21T08:19:35.159Z,11.70
2022-10-21T08:22:02.618Z,11.32
2022-10-21T08:24:30.166Z,11.45
2022-10-21T08:26:58.396Z,11.90
2022-10-21T08:29:25.889Z,10.27
2022-10-21T08:31:55.553Z,11.55
2022-10-21T08:34:28.759Z,11.70
2022-10-21T08:36:59.131Z,10.98
2022-10-21T08:39:29.785Z,11.80
2022-10-21T08:42:32.220Z,10.60
2022-10-21T08:45:11.540Z,10.35
2022-10-21T08:48:03.461Z,9.93
2022-10-21T08:50:40.623Z,9.95
2022-10-21T08:53:16.250Z,11.02
2022-10-21T08:55:44.634Z,10.98
2022-10-21T08:58:17.116Z,22.20
2022-10-21T09:00:58.764Z,15.00
2022-10-21T09:04:20.885Z,17.02
2022-10-21T09:07:19.457Z,11.40
2022-10-21T09:10:21.067Z,12.32
2022-10-21T09:12:59.596Z,11.50
2022-10-21T09:15:28.464Z,17.27
2022-10-21T09:17:55.527Z,10.77
2022-10-21T09:20:35.129Z,10.65
2022-10-21T09:25:54.343Z,9.65
2022-10-21T09:28:32.843Z,10.27
2022-10-21T09:37:57.831Z,14.18
2022-10-21T09:46:33.522Z,8.43
2022-10-21T09:49:36.789Z,9.27
2022-10-21T09:54:58.207Z,8.27
2022-10-21T09:58:04.101Z,9.20
2022-10-21T10:01:09.203Z,8.75
2022-10-21T10:03:53.706Z,8.77
2022-10-21T10:12:34.028Z,8.50
2022-10-21T10:15:26.939Z,8.65
2022-10-21T10:18:14.511Z,9.30
2022-10-21T10:21:16.133Z,9.25
2022-10-21T10:23:48.311Z,9.52
2022-10-21T10:27:51.015Z,9.40
2022-10-21T10:30:04.398Z,9.30
2022-10-21T10:32:45.037Z,9.48
2022-10-21T10:35:39.578Z,9.02
2022-10-21T10:38:40.518Z,8.40
2022-10-21T10:41:28.101Z,9.18
2022-10-21T10:44:23.093Z,9.45
2022-10-21T10:47:14.545Z,9.45
2022-10-21T10:50:01.055Z,9.50
2022-10-21T10:52:43.159Z,8.90
2022-10-21T10:55:29.882Z,8.65
2022-10-21T11:01:30.281Z,8.77
2022-10-21T11:04:47.450Z,8.02
2022-10-21T11:08:03.566Z,9.05
2022-10-21T11:10:37.760Z,8.45
2022-10-21T11:13:44.960Z,8.82
2022-10-21T11:16:59.058Z,9.07
2022-10-21T11:19:42.083Z,9.20
2022-10-21T11:22:35.958Z,8.48
2022-10-21T11:28:47.341Z,8.73
2022-10-21T11:31:30.308Z,8.82
2022-10-21T11:37:09.228Z,8.35
2022-10-21T11:39:51.801Z,8.60
2022-10-21T11:42:38.387Z,7.97
2022-10-21T11:48:31.901Z,7.95
2022-10-21T11:51:16.623Z,7.85
2022-10-21T11:54:27.455Z,8.23
2022-10-21T11:57:16.423Z,7.28
2022-10-21T12:00:00.132Z,7.78
2022-10-21T12:03:10.298Z,9.05
2022-10-21T12:06:09.723Z,14.00
2022-10-21T12:08:55.112Z,8.35
2022-10-21T12:12:11.469Z,7.38
2022-10-21T12:17:52.735Z,7.88
2022-10-21T12:20:31.996Z,6.97
2022-10-21T12:23:37.011Z,6.90
2022-10-21T12:29:05.551Z,7.55
2022-10-21T12:32:06.939Z,7.03
2022-10-21T12:35:07.930Z,6.95
2022-10-21T12:38:12.658Z,7.28
2022-10-21T12:41:19.747Z,7.65
2022-10-21T12:44:37.810Z,7.20
2022-10-21T12:47:23.101Z,6.90
2022-10-21T12:53:37.624Z,6.93
2022-10-21T12:56:25.990Z,7.47
2022-10-21T13:17:50.429Z,11.73
2022-10-21T13:20:41.373Z,9.88
2022-10-21T13:26:59.685Z,7.83
2022-10-21T13:36:31.254Z,8.68
2022-10-21T13:39:36.833Z,7.40
2022-10-21T13:49:56.408Z,9.02
2022-10-21T13:55:49.176Z,9.57
2022-10-21T14:13:27.186Z,18.42
2022-10-21T14:15:36.892Z,11.93
2022-10-21T14:22:08.341Z,8.25
2022-10-21T14:28:05.612Z,11.70
2022-10-21T14:34:13.648Z,8.05
2022-10-21T14:53:06.831Z,9.65
2022-10-21T15:02:44.028Z,7.70
2022-10-21T15:09:06.305Z,9.68
2022-10-21T15:14:35.643Z,7.88
2022-10-21T15:21:02.140Z,9.95
2022-10-21T15:28:27.711Z,11.35
2022-10-21T15:30:25.334Z,11.43
2022-10-21T15:33:09.957Z,10.02
2022-10-21T15:39:05.485Z,10.10
2022-10-21T15:41:45.665Z,12.27
2022-10-21T15:45:14.624Z,11.57
2022-10-21T15:48:25.630Z,12.73
2022-10-21T15:50:53.578Z,13.10
2022-10-21T15:59:53.516Z,15.27
2022-10-21T16:02:45.610Z,23.85
2022-10-21T16:05:56.891Z,29.38
2022-10-21T16:21:02.240Z,24.45
2022-10-21T16:26:28.331Z,31.17
2022-10-21T16:31:04.981Z,33.45
2022-10-21T16:32:36.183Z,36.30
2022-10-21T16:35:40.228Z,35.30
2022-10-21T16:42:03.574Z,39.25
2022-10-21T16:45:09.296Z,39.65
2022-10-21T16:51:26.506Z,42.72
2022-10-21T17:13:12.770Z,55.72
2022-10-21T17:16:52.420Z,58.83
2022-10-21T17:22:52.653Z,53.20
2022-10-21T17:29:38.955Z,44.60
2022-10-21T17:32:20.128Z,37.00
2022-10-21T17:35:51.579Z,30.88
2022-10-21T17:38:55.048Z,27.20
2022-10-21T17:47:23.347Z,24.65
2022-10-21T17:50:24.708Z,35.17
2022-10-21T17:53:23.436Z,35.72
2022-10-21T18:03:14.152Z,26.35
2022-10-21T18:09:04.090Z,22.10
2022-10-21T18:21:57.468Z,28.70
2022-10-21T18:31:07.824Z,35.90
2022-10-21T18:38:07.320Z,22.90
2022-10-21T18:56:51.542Z,20.83
2022-10-21T19:03:31.843Z,25.65
2022-10-21T19:06:31.417Z,16.92
2022-10-21T19:19:39.878Z,17.50
2022-10-21T19:22:52.594Z,19.42
2022-10-21T20:01:07.273Z,22.88
2022-10-21T20:06:36.290Z,21.92
2022-10-21T20:11:17.343Z,28.45
2022-10-21T20:15:57.255Z,21.77
2022-10-21T20:19:01.775Z,22.80
2022-10-21T20:22:02.133Z,20.23
2022-10-21T20:28:04.439Z,18.15
2022-10-21T20:31:18.964Z,18.58
2022-10-21T20:34:14.427Z,19.73
2022-10-21T20:39:51.984Z,19.75
2022-10-21T20:42:41.006Z,19.65
2022-10-21T20:45:15.863Z,19.33
2022-10-21T20:48:15.717Z,18.98
2022-10-21T20:51:49.543Z,19.02
2022-10-21T21:01:05.848Z,20.70
2022-10-21T21:07:02.284Z,17.65
2022-10-21T21:10:02.839Z,18.10
2022-10-21T21:15:31.387Z,19.17
2022-10-21T21:18:12.209Z,16.58
2022-10-21T21:20:47.272Z,18.45
2022-10-21T21:23:14.355Z,17.40
2022-10-21T21:25:43.651Z,18.20
2022-10-21T21:28:10.698Z,17.85
2022-10-21T21:30:37.806Z,18.05
2022-10-21T21:33:05.044Z,18.23
2022-10-21T21:35:33.597Z,19.10
2022-10-21T21:38:01.128Z,17.55
2022-10-21T21:40:29.719Z,22.08
2022-10-21T21:42:57.034Z,25.50
2022-10-21T21:45:26.342Z,23.65
2022-10-21T21:47:53.625Z,22.63
2022-10-21T21:50:20.757Z,21.00
2022-10-21T21:52:47.848Z,22.63
2022-10-21T21:55:15.006Z,24.83
2022-10-21T21:57:42.326Z,26.60
2022-10-21T22:00:16.433Z,21.17
2022-10-21T22:02:44.080Z,19.88
2022-10-21T22:05:11.536Z,19.73
2022-10-21T22:07:41.458Z,20.52
2022-10-21T22:10:11.396Z,20.55
2022-10-21T22:12:38.781Z,20.85
2022-10-21T22:15:13.748Z,19.63
2022-10-21T22:17:49.978Z,20.85
2022-10-21T22:20:18.846Z,20.08
2022-10-21T22:22:47.122Z,19.63
2022-10-21T22:25:15.647Z,21.15
2022-10-21T22:27:52.990Z,20.95
2022-10-21T22:30:20.225Z,20.65
2022-10-21T22:32:50.192Z,21.50
2022-10-21T22:35:18.283Z,23.10
2022-10-21T22:37:46.526Z,21.20
2022-10-21T22:40:14.097Z,21.20
2022-10-21T22:45:14.451Z,19.40
2022-10-21T22:47:42.136Z,20.02
2022-10-21T22:50:09.727Z,21.67
2022-10-21T22:52:36.945Z,20.02
2022-10-21T22:55:04.765Z,20.88
2022-10-21T22:57:33.624Z,20.75
2022-10-21T23:00:00.834Z,21.55
2022-10-21T23:02:31.178Z,21.35
2022-10-21T23:04:58.277Z,21.25
2022-10-21T23:07:25.438Z,21.45
2022-10-21T23:10:01.826Z,21.98
2022-10-21T23:12:31.276Z,19.90
2022-10-21T23:14:59.580Z,20.90
2022-10-21T23:17:34.468Z,20.80
2022-10-21T23:20:01.573Z,21.17
2022-10-21T23:22:33.265Z,21.48
2022-10-21T23:25:00.621Z,21.63
2022-10-21T23:27:35.055Z,21.67
2022-10-21T23:30:06.811Z,20.42
2022-10-21T23:32:42.188Z,20.67
2022-10-21T23:35:12.367Z,21.50
2022-10-21T23:37:43.263Z,20.25
2022-10-21T23:40:19.571Z,20.00
2022-10-21T23:42:46.719Z,19.15
2022-10-21T23:45:14.039Z,18.55
2022-10-21T23:47:41.532Z,20.48
2022-10-21T23:50:13.478Z,19.88
2022-10-21T23:52:42.225Z,20.67
2022-10-21T23:55:09.935Z,20.38
2022-10-21T23:57:40.446Z,19.80
